Time;durP1;ratioP1;P1;durP2;ratioP2;P2;SDS_P1;SDS_P2;PMS_P1;PMS_P2;Temp;Humidity;BMP_temperature;BMP_pressure;BME280_temperature;BME280_humidity;BME280_pressure;Samples;Min_cycle;Max_cycle;Signal;HPM_P1;HPM_P2
2023/08/11 00:01:00;;;;;;;;;;;;;;;28.75;37.87;100842.81;5056896;28;1068;-32
2023/08/11 00:03:25;;;;;;;;;;;;;;;28.72;37.64;100840.47;5056555;28;1207;-33
2023/08/11 00:05:52;;;;;;;;;;;;;;;28.71;37.94;100836.09;5056835;28;1230;-31
2023/08/11 00:08:18;;;;;;;;;;;;;;;28.74;37.97;100827.59;5056636;28;1084;-33
2023/08/11 00:10:43;;;;;;;;;;;;;;;28.55;38.45;100831.75;5056836;28;1056;-34
2023/08/11 00:13:12;;;;;;;;;;;;;;;28.66;38.19;100830.44;5056410;28;1144;-34
2023/08/11 00:15:39;;;;;;;;;;;;;;;28.77;38.21;100832.63;5056195;28;1072;-31
2023/08/11 00:18:05;;;;;;;;;;;;;;;28.75;38.45;100829.25;5056668;28;1910;-32
2023/08/11 00:20:30;;;;;;;;;;;;;;;28.84;38.22;100830.00;5056315;28;1183;-31
2023/08/11 00:22:56;;;;;;;;;;;;;;;28.69;38.43;100835.47;5056168;28;1075;-33
2023/08/11 00:25:22;;;;;;;;;;;;;;;28.74;38.66;100830.31;5038587;28;1200;-34
2023/08/11 00:27:47;;;;;;;;;;;;;;;28.67;38.55;100827.53;5056179;28;1102;-31
2023/08/11 00:30:13;;;;;;;;;;;;;;;28.50;39.15;100823.38;5056256;28;1237;-34
2023/08/11 00:32:38;;;;;;;;;;;;;;;28.56;38.94;100817.22;5038160;28;1145;-28
2023/08/11 00:35:04;;;;;;;;;;;;;;;28.39;39.55;100812.03;5037884;28;1140;-29
2023/08/11 00:37:30;;;;;;;;;;;;;;;28.51;39.47;100811.53;5056263;28;1056;-30
2023/08/11 00:39:55;;;;;;;;;;;;;;;28.55;39.52;100818.22;5038314;28;1910;-35
2023/08/11 00:42:22;;;;;;;;;;;;;;;28.47;39.47;100811.06;5037894;28;1142;-32
2023/08/11 00:44:48;;;;;;;;;;;;;;;28.55;39.54;100813.66;5037366;28;1263;-29
2023/08/11 00:47:13;;;;;;;;;;;;;;;28.46;39.92;100812.91;5038253;28;931;-34
2023/08/11 00:49:39;;;;;;;;;;;;;;;28.65;39.49;100816.03;5038319;28;1052;-34
2023/08/11 00:52:04;;;;;;;;;;;;;;;28.64;39.67;100814.38;5056071;28;1074;-31
2023/08/11 00:54:32;;;;;;;;;;;;;;;28.64;39.68;100818.94;5056209;28;1138;-32
2023/08/11 00:56:58;;;;;;;;;;;;;;;28.72;39.68;100822.38;5055290;28;1202;-33
2023/08/11 00:59:24;;;;;;;;;;;;;;;28.72;39.60;100821.53;5055972;28;1906;-33
2023/08/11 01:01:49;;;;;;;;;;;;;;;28.72;39.83;100827.78;5056069;28;1064;-33
2023/08/11 01:04:15;;;;;;;;;;;;;;;28.77;39.58;100829.91;5056145;28;801;-34
2023/08/11 01:06:47;;;;;;;;;;;;;;;28.70;39.99;100831.72;5055732;28;1132;-33
2023/08/11 01:09:31;;;;;;;;;;;;;;;28.75;40.03;100823.84;5037753;28;1120;-33
2023/08/11 01:12:06;;;;;;;;;;;;;;;28.65;40.18;100832.28;5055488;28;1001;-32
2023/08/11 01:14:40;;;;;;;;;;;;;;;28.63;40.45;100825.41;5056034;28;1152;-33
2023/08/11 01:17:06;;;;;;;;;;;;;;;28.66;40.49;100825.84;5055643;28;1276;-30
2023/08/11 01:19:32;;;;;;;;;;;;;;;28.64;40.31;100822.50;5055696;28;1983;-32
2023/08/11 01:21:59;;;;;;;;;;;;;;;28.65;40.49;100826.03;5055396;28;909;-33
2023/08/11 01:24:25;;;;;;;;;;;;;;;28.64;40.48;100814.38;5055725;28;976;-33
2023/08/11 01:26:51;;;;;;;;;;;;;;;28.64;40.67;100821.66;5037660;28;1032;-31
2023/08/11 01:29:18;;;;;;;;;;;;;;;28.68;40.25;100820.22;5037885;28;1158;-32
2023/08/11 01:31:44;;;;;;;;;;;;;;;28.63;40.81;100828.09;5055526;28;1130;-35
2023/08/11 01:34:09;;;;;;;;;;;;;;;28.60;40.91;100827.47;5055163;28;1084;-29
2023/08/11 01:36:36;;;;;;;;;;;;;;;28.56;41.20;100828.03;5037420;28;1228;-33
2023/08/11 01:39:04;;;;;;;;;;;;;;;28.68;40.99;100825.63;5055486;28;1979;-34
2023/08/11 01:41:31;;;;;;;;;;;;;;;28.68;41.09;100831.06;5055706;28;1047;-30
2023/08/11 01:43:56;;;;;;;;;;;;;;;28.74;41.00;100835.72;5055251;28;1132;-30
2023/08/11 01:46:22;;;;;;;;;;;;;;;28.62;41.26;100837.25;5037603;28;1110;-32
2023/08/11 01:48:48;;;;;;;;;;;;;;;28.58;41.21;100834.06;5037079;28;1096;-29
2023/08/11 01:51:13;;;;;;;;;;;;;;;28.64;41.05;100840.59;5020907;28;1049;-30
2023/08/11 01:53:39;;;;;;;;;;;;;;;28.65;41.23;100847.69;5037661;28;996;-34
2023/08/11 01:56:05;;;;;;;;;;;;;;;28.65;40.83;100845.81;5037691;28;1183;-30
2023/08/11 01:58:30;;;;;;;;;;;;;;;28.62;41.06;100848.06;5023933;28;1898;-30
2023/08/11 02:00:56;;;;;;;;;;;;;;;28.57;41.52;100838.66;5024998;28;1107;-31
2023/08/11 02:03:22;;;;;;;;;;;;;;;28.70;41.17;100847.94;5059198;28;1160;-33
2023/08/11 02:05:48;;;;;;;;;;;;;;;28.62;40.97;100845.34;5041413;28;1134;-33
2023/08/11 02:08:17;;;;;;;;;;;;;;;28.64;41.08;100848.72;5058575;28;1003;-34
2023/08/11 02:10:44;;;;;;;;;;;;;;;28.70;40.65;100851.50;5058829;28;905;-31
2023/08/11 02:13:10;;;;;;;;;;;;;;;28.70;41.12;100856.06;5058904;28;976;-33
2023/08/11 02:15:35;;;;;;;;;;;;;;;28.55;41.78;100848.84;5058873;28;1123;-30
2023/08/11 02:18:01;;;;;;;;;;;;;;;28.65;41.27;100858.50;5058622;28;1906;-33
2023/08/11 02:20:28;;;;;;;;;;;;;;;28.67;41.00;100859.16;5059198;28;1104;-31
2023/08/11 02:22:54;;;;;;;;;;;;;;;28.69;41.25;100855.25;5058635;28;1004;-34
2023/08/11 02:25:20;;;;;;;;;;;;;;;28.66;41.06;100852.91;5058850;28;989;-30
2023/08/11 02:27:45;;;;;;;;;;;;;;;28.48;41.11;100850.63;5058801;28;1199;-32
2023/08/11 02:30:11;;;;;;;;;;;;;;;28.58;41.25;100853.88;5058434;28;1198;-31
2023/08/11 02:32:40;;;;;;;;;;;;;;;28.66;41.03;100855.59;5040831;28;1585;-36
2023/08/11 02:35:06;;;;;;;;;;;;;;;28.68;40.79;100853.56;5040564;28;1145;-30
2023/08/11 02:37:32;;;;;;;;;;;;;;;28.66;40.84;100852.09;5058628;28;1088;-31
2023/08/11 02:39:58;;;;;;;;;;;;;;;28.70;40.92;100851.50;5058220;28;1913;-33
2023/08/11 02:42:24;;;;;;;;;;;;;;;28.73;40.73;100851.13;5058239;28;1025;-32
2023/08/11 02:44:49;;;;;;;;;;;;;;;28.66;40.62;100847.47;5058523;28;1127;-30
2023/08/11 02:47:15;;;;;;;;;;;;;;;28.68;40.68;100852.72;5057947;28;981;-33
2023/08/11 02:49:40;;;;;;;;;;;;;;;28.59;40.84;100843.88;5058181;28;1087;-32
2023/08/11 02:52:08;;;;;;;;;;;;;;;28.57;40.96;100835.97;5058078;28;1083;-32
2023/08/11 02:54:35;;;;;;;;;;;;;;;28.50;41.20;100836.88;5057876;28;1123;-33
2023/08/11 02:57:01;;;;;;;;;;;;;;;28.60;41.20;100838.28;5057787;28;1175;-32
2023/08/11 02:59:27;;;;;;;;;;;;;;;28.60;41.11;100841.00;5057668;28;1910;-36
2023/08/11 03:01:52;;;;;;;;;;;;;;;28.60;40.99;100838.28;5058088;28;1144;-31
2023/08/11 03:04:18;;;;;;;;;;;;;;;28.42;41.25;100840.56;5040568;28;1112;-32
2023/08/11 03:06:47;;;;;;;;;;;;;;;28.46;42.20;100839.16;5039942;28;1246;-34
2023/08/11 03:09:13;;;;;;;;;;;;;;;28.56;42.44;100842.38;5056791;28;1036;-30
2023/08/11 03:11:39;;;;;;;;;;;;;;;28.43;42.79;100836.81;5057072;28;1179;-34
2023/08/11 03:14:04;;;;;;;;;;;;;;;28.34;43.35;100849.63;5040343;28;1132;-32
2023/08/11 03:16:32;;;;;;;;;;;;;;;28.33;41.52;100840.66;5039856;28;1139;-30
2023/08/11 03:18:58;;;;;;;;;;;;;;;28.07;39.57;100841.97;5039681;28;1910;-34
2023/08/11 03:21:23;;;;;;;;;;;;;;;27.93;39.43;100848.22;5056149;28;1222;-29
2023/08/11 03:23:49;;;;;;;;;;;;;;;27.76;39.45;100851.09;5039562;28;1502;-30
2023/08/11 03:26:15;;;;;;;;;;;;;;;27.82;39.70;100850.38;5039707;28;1265;-27
2023/08/11 03:28:41;;;;;;;;;;;;;;;27.83;39.18;100852.03;5039849;28;1218;-30
2023/08/11 03:31:07;;;;;;;;;;;;;;;27.84;39.54;100852.88;5064361;28;1124;-29
2023/08/11 03:33:38;;;;;;;;;;;;;;;27.90;38.90;100856.69;5049638;28;1270;-29
2023/08/11 03:36:07;;;;;;;;;;;;;;;27.80;38.48;100863.22;5057505;28;1150;-28
2023/08/11 03:38:33;;;;;;;;;;;;;;;27.61;39.12;100862.69;5056781;28;1965;-28
2023/08/11 03:40:58;;;;;;;;;;;;;;;27.79;39.68;100860.72;5037834;28;1285;-27
2023/08/11 03:43:24;;;;;;;;;;;;;;;28.00;38.28;100865.38;5056694;28;996;-26
2023/08/11 03:45:50;;;;;;;;;;;;;;;27.86;39.03;100867.88;5038929;28;1117;-27
2023/08/11 03:48:16;;;;;;;;;;;;;;;26.75;40.98;100859.13;5039385;28;1100;-27
2023/08/11 03:50:41;;;;;;;;;;;;;;;25.97;42.00;100870.53;5057154;28;1065;-29
2023/08/11 03:53:07;;;;;;;;;;;;;;;26.96;42.07;100876.53;5056583;28;1040;-30
2023/08/11 03:55:33;;;;;;;;;;;;;;;27.14;42.27;100886.25;5052367;28;1323;-29
2023/08/11 03:58:00;;;;;;;;;;;;;;;27.65;41.59;100883.94;5038815;28;1957;-31
2023/08/11 04:00:28;;;;;;;;;;;;;;;27.80;40.81;100878.59;5035780;28;2405;-29
2023/08/11 04:03:03;;;;;;;;;;;;;;;27.63;41.47;100884.13;5038313;28;1940;-31
2023/08/11 04:05:29;;;;;;;;;;;;;;;27.79;40.86;100888.59;5062377;28;1875;-32
2023/08/11 04:07:55;;;;;;;;;;;;;;;27.61;41.59;100881.63;5043156;28;2134;-31
2023/08/11 04:10:24;;;;;;;;;;;;;;;27.66;41.41;100894.56;5052730;28;1970;-33
2023/08/11 04:12:50;;;;;;;;;;;;;;;27.75;41.17;100888.09;5039909;28;2154;-29
2023/08/11 04:15:15;;;;;;;;;;;;;;;27.97;40.84;100888.22;5048715;28;2206;-29
2023/08/11 04:17:41;;;;;;;;;;;;;;;27.96;40.73;100894.66;5051911;28;1417;-31
2023/08/11 04:20:12;;;;;;;;;;;;;;;27.85;41.10;100892.41;5075475;28;1910;-31
2023/08/11 04:22:40;;;;;;;;;;;;;;;27.84;41.13;100883.44;5047836;28;1508;-30
2023/08/11 04:25:07;;;;;;;;;;;;;;;27.90;41.04;100884.56;5045488;28;1430;-30
2023/08/11 04:27:32;;;;;;;;;;;;;;;27.93;40.99;100891.47;5075828;28;1031;-32
2023/08/11 04:29:58;;;;;;;;;;;;;;;27.99;40.93;100888.03;5057771;28;1115;-32
2023/08/11 04:32:24;;;;;;;;;;;;;;;27.93;41.01;100888.75;5057511;28;1402;-34
2023/08/11 04:34:49;;;;;;;;;;;;;;;27.94;41.15;100894.00;5065254;28;950;-34
2023/08/11 04:37:17;;;;;;;;;;;;;;;27.92;41.24;100897.91;5052144;28;1400;-28
2023/08/11 04:39:42;;;;;;;;;;;;;;;27.94;41.05;100898.56;5075777;28;1980;-32
2023/08/11 04:42:08;;;;;;;;;;;;;;;27.92;41.31;100903.31;5058135;28;1151;-29
2023/08/11 04:44:34;;;;;;;;;;;;;;;28.18;40.62;100896.59;5050048;28;2214;-33
2023/08/11 04:47:00;;;;;;;;;;;;;;;28.03;40.88;100902.84;5044672;28;1140;-33
2023/08/11 04:49:25;;;;;;;;;;;;;;;28.14;40.49;100900.72;5057321;28;1063;-30
2023/08/11 04:51:51;;;;;;;;;;;;;;;28.27;40.42;100911.72;5042817;28;1308;-29
2023/08/11 04:54:17;;;;;;;;;;;;;;;27.92;38.19;100912.28;5048919;28;1287;-31
2023/08/11 04:56:43;;;;;;;;;;;;;;;28.05;38.81;100914.34;5075293;28;1143;-31
2023/08/11 04:59:09;;;;;;;;;;;;;;;27.92;39.63;100923.09;5041622;28;1910;-28
2023/08/11 05:01:34;;;;;;;;;;;;;;;28.05;39.14;100919.75;5055698;28;1136;-29
2023/08/11 05:04:00;;;;;;;;;;;;;;;27.31;39.15;100921.22;5074282;28;1039;-33
2023/08/11 05:06:25;;;;;;;;;;;;;;;27.61;36.80;100921.31;5062943;28;1122;-31
2023/08/11 05:08:51;;;;;;;;;;;;;;;28.03;37.80;100913.66;5060203;28;1083;-31
2023/08/11 05:11:16;;;;;;;;;;;;;;;28.16;37.57;100923.84;5063541;28;1460;-32
2023/08/11 05:13:43;;;;;;;;;;;;;;;28.19;36.84;100912.69;5072728;28;2356;-34
2023/08/11 05:16:09;;;;;;;;;;;;;;;28.20;36.43;100911.63;5054737;28;1173;-30
2023/08/11 05:18:35;;;;;;;;;;;;;;;28.25;36.37;100913.78;5067131;28;1902;-33
2023/08/11 05:21:01;;;;;;;;;;;;;;;28.19;35.72;100919.94;5064038;28;1012;-30
2023/08/11 05:23:26;;;;;;;;;;;;;;;28.16;35.48;100913.03;5058003;28;1521;-32
2023/08/11 05:25:52;;;;;;;;;;;;;;;28.20;35.59;100908.94;5058044;28;1191;-29
2023/08/11 05:28:18;;;;;;;;;;;;;;;28.29;35.82;100911.53;5065132;28;1305;-31
2023/08/11 05:30:44;;;;;;;;;;;;;;;27.63;37.65;100900.34;5067937;28;1051;-30
2023/08/11 05:33:09;;;;;;;;;;;;;;;26.96;39.27;100902.69;5064611;28;1162;-30
2023/08/11 05:35:35;;;;;;;;;;;;;;;26.85;39.12;100909.31;5058838;28;911;-31
2023/08/11 05:38:01;;;;;;;;;;;;;;;27.18;38.71;100902.91;5073281;28;1971;-29
2023/08/11 05:40:27;;;;;;;;;;;;;;;27.26;38.70;100903.69;5059174;28;1016;-36
2023/08/11 05:42:53;;;;;;;;;;;;;;;27.58;37.39;100910.84;5074822;28;1190;-30
2023/08/11 05:45:18;;;;;;;;;;;;;;;27.34;37.83;100912.75;5058433;28;2158;-31
2023/08/11 05:47:44;;;;;;;;;;;;;;;27.25;37.77;100909.28;5065846;28;880;-33
2023/08/11 05:50:09;;;;;;;;;;;;;;;27.40;37.47;100912.03;5076432;28;1040;-29
2023/08/11 05:52:35;;;;;;;;;;;;;;;27.90;36.31;100913.47;5078956;28;1079;-33
2023/08/11 05:55:00;;;;;;;;;;;;;;;27.72;37.05;100918.22;5074911;28;1067;-30
2023/08/11 05:57:26;;;;;;;;;;;;;;;27.69;37.60;100915.03;5069242;28;1217;-35
2023/08/11 05:59:51;;;;;;;;;;;;;;;27.80;37.30;100908.31;5066820;28;1969;-36
2023/08/11 06:02:17;;;;;;;;;;;;;;;27.67;38.03;100919.75;5060697;28;1030;-32
2023/08/11 06:04:44;;;;;;;;;;;;;;;27.26;38.18;100914.47;5058808;28;1144;-33
2023/08/11 06:07:10;;;;;;;;;;;;;;;27.14;38.36;100914.06;5058534;28;1092;-34
2023/08/11 06:09:35;;;;;;;;;;;;;;;27.48;38.02;100916.50;5058594;28;1070;-32
2023/08/11 06:12:01;;;;;;;;;;;;;;;27.38;37.84;100916.75;5070498;28;926;-34
2023/08/11 06:14:27;;;;;;;;;;;;;;;27.54;37.55;100928.47;5060350;28;1968;-31
2023/08/11 06:16:52;;;;;;;;;;;;;;;27.54;38.16;100929.31;5058451;28;1020;-31
2023/08/11 06:19:18;;;;;;;;;;;;;;;27.43;37.79;100932.41;5051665;28;1909;-29
2023/08/11 06:21:45;;;;;;;;;;;;;;;27.55;36.82;100927.44;5053239;28;1086;-30
2023/08/11 06:24:11;;;;;;;;;;;;;;;27.65;37.58;100936.13;5058384;28;1209;-29
2023/08/11 06:26:36;;;;;;;;;;;;;;;27.91;36.66;100932.19;5057857;28;992;-30
2023/08/11 06:29:04;;;;;;;;;;;;;;;27.08;34.89;100930.97;5058117;28;1021;-33
2023/08/11 06:31:30;;;;;;;;;;;;;;;27.19;35.09;100921.66;5058036;28;1120;-33
2023/08/11 06:33:55;;;;;;;;;;;;;;;27.60;35.71;100920.47;5057662;28;1067;-34
2023/08/11 06:36:21;;;;;;;;;;;;;;;27.68;36.15;100925.00;5057536;28;865;-36
2023/08/11 06:38:46;;;;;;;;;;;;;;;27.90;35.72;100926.97;5057850;28;1973;-32
2023/08/11 06:41:12;;;;;;;;;;;;;;;28.07;34.95;100924.97;5057394;28;1208;-32
2023/08/11 06:43:38;;;;;;;;;;;;;;;28.06;34.58;100929.53;5056744;28;1108;-31
2023/08/11 06:46:04;;;;;;;;;;;;;;;28.22;35.10;100931.22;5055127;28;950;-30
2023/08/11 06:48:29;;;;;;;;;;;;;;;28.18;35.53;100924.50;5057173;28;997;-32
2023/08/11 06:50:58;;;;;;;;;;;;;;;28.35;35.32;100929.75;5057265;28;1196;-31
2023/08/11 06:53:24;;;;;;;;;;;;;;;28.17;36.21;100925.53;5056341;28;1363;-33
2023/08/11 06:55:49;;;;;;;;;;;;;;;28.24;36.02;100921.03;5057236;28;1179;-33
2023/08/11 06:58:15;;;;;;;;;;;;;;;28.22;35.85;100923.13;5056443;28;1906;-32
2023/08/11 07:00:40;;;;;;;;;;;;;;;28.34;36.41;100919.97;5057686;28;1234;-28
2023/08/11 07:03:06;;;;;;;;;;;;;;;28.40;35.52;100915.66;5056808;28;1087;-31
2023/08/11 07:05:31;;;;;;;;;;;;;;;28.26;36.30;100925.44;5057737;28;1387;-35
2023/08/11 07:07:57;;;;;;;;;;;;;;;28.20;36.70;100917.03;5057193;28;1155;-30
2023/08/11 07:10:22;;;;;;;;;;;;;;;28.60;35.57;100915.91;5052964;28;1208;-33
2023/08/11 07:12:48;;;;;;;;;;;;;;;28.45;35.86;100913.22;5043832;28;1210;-31
2023/08/11 07:15:13;;;;;;;;;;;;;;;28.16;37.00;100923.84;5047852;28;2372;-30
2023/08/11 07:17:39;;;;;;;;;;;;;;;28.09;37.77;100915.63;5039357;28;1121;-33
2023/08/11 07:20:05;;;;;;;;;;;;;;;28.28;36.61;100923.41;5076512;28;1986;-29
2023/08/11 07:22:30;;;;;;;;;;;;;;;28.30;36.44;100926.72;5061483;28;1212;-30
2023/08/11 07:24:56;;;;;;;;;;;;;;;28.15;36.91;100913.22;5070913;28;1154;-31
2023/08/11 07:27:21;;;;;;;;;;;;;;;28.15;36.71;100921.31;5077205;28;1143;-34
2023/08/11 07:29:47;;;;;;;;;;;;;;;28.25;36.15;100921.88;5073431;28;1115;-33
2023/08/11 07:32:13;;;;;;;;;;;;;;;28.20;36.62;100918.91;5033582;28;1278;-32
2023/08/11 07:34:40;;;;;;;;;;;;;;;28.32;37.31;100928.25;5059718;28;1029;-29
2023/08/11 07:37:06;;;;;;;;;;;;;;;28.46;36.54;100934.69;5070349;28;1383;-29
2023/08/11 07:39:31;;;;;;;;;;;;;;;28.40;36.59;100929.19;5075972;28;1906;-29
2023/08/11 07:42:02;;;;;;;;;;;;;;;28.36;36.60;100931.44;5070971;28;1285;-31
2023/08/11 07:44:31;;;;;;;;;;;;;;;28.44;36.34;100931.34;5066926;28;2418;-29
2023/08/11 07:46:57;;;;;;;;;;;;;;;28.32;37.04;100930.09;5063391;28;991;-29
2023/08/11 07:49:22;;;;;;;;;;;;;;;28.34;36.50;100937.03;5055757;28;958;-30
2023/08/11 07:51:48;;;;;;;;;;;;;;;28.50;36.04;100937.00;5076064;28;1097;-31
2023/08/11 07:54:14;;;;;;;;;;;;;;;28.55;36.71;100940.84;5076381;28;1051;-29
2023/08/11 07:56:40;;;;;;;;;;;;;;;28.49;36.72;100947.03;5071401;28;1275;-33
2023/08/11 07:59:06;;;;;;;;;;;;;;;28.44;36.69;100944.03;5055545;28;1975;-30
2023/08/11 08:01:31;;;;;;;;;;;;;;;28.46;36.86;100939.28;5057155;28;926;-28
2023/08/11 08:03:57;;;;;;;;;;;;;;;28.45;36.85;100938.44;5076480;28;1113;-32
2023/08/11 08:06:22;;;;;;;;;;;;;;;28.56;36.51;100939.00;5073457;28;1063;-29
2023/08/11 08:08:48;;;;;;;;;;;;;;;28.59;36.58;100936.72;5036695;28;1408;-32
2023/08/11 08:11:13;;;;;;;;;;;;;;;28.55;36.60;100931.88;5036598;28;1412;-29
2023/08/11 08:13:39;;;;;;;;;;;;;;;28.60;36.88;100929.44;5060163;28;2509;-33
2023/08/11 08:16:04;;;;;;;;;;;;;;;28.40;36.75;100921.06;5052956;28;1222;-31
2023/08/11 08:18:30;;;;;;;;;;;;;;;28.36;37.20;100926.03;5071799;28;1906;-36
2023/08/11 08:20:55;;;;;;;;;;;;;;;28.35;37.04;100924.34;5071533;28;1195;-32
2023/08/11 08:23:22;;;;;;;;;;;;;;;28.51;36.88;100923.28;5069521;28;1399;-30
2023/08/11 08:25:47;;;;;;;;;;;;;;;28.61;36.38;100920.31;5058027;28;1251;-32
2023/08/11 08:28:13;;;;;;;;;;;;;;;28.65;36.31;100913.50;5049183;28;1419;-31
2023/08/11 08:30:39;;;;;;;;;;;;;;;28.66;35.77;100917.03;5064519;28;1012;-32
2023/08/11 08:33:06;;;;;;;;;;;;;;;28.59;36.66;100917.78;5067608;28;1029;-30
2023/08/11 08:35:31;;;;;;;;;;;;;;;28.46;36.62;100920.34;5071499;28;1096;-33
2023/08/11 08:37:57;;;;;;;;;;;;;;;28.11;37.42;100910.06;5050283;28;1910;-30
2023/08/11 08:40:22;;;;;;;;;;;;;;;28.19;37.38;100917.22;5054978;28;934;-35
2023/08/11 08:42:48;;;;;;;;;;;;;;;28.30;35.98;100922.16;5075157;28;1028;-31
2023/08/11 08:45:13;;;;;;;;;;;;;;;28.09;35.72;100918.34;5061891;28;2374;-33
2023/08/11 08:47:39;;;;;;;;;;;;;;;28.08;36.22;100929.34;5055558;28;1041;-32
2023/08/11 08:50:05;;;;;;;;;;;;;;;28.15;35.88;100926.72;5035180;28;1140;-33
2023/08/11 08:52:30;;;;;;;;;;;;;;;28.10;36.31;100925.44;5050247;28;1214;-32
2023/08/11 08:54:56;;;;;;;;;;;;;;;28.03;37.37;100929.06;5055780;28;1040;-32
2023/08/11 08:57:24;;;;;;;;;;;;;;;28.11;37.00;100927.09;5065551;28;1147;-33
2023/08/11 08:59:49;;;;;;;;;;;;;;;28.07;37.60;100931.22;5054109;28;1910;-32
2023/08/11 09:02:15;;;;;;;;;;;;;;;28.01;36.79;100928.41;5055158;28;1001;-32
2023/08/11 09:04:40;;;;;;;;;;;;;;;27.99;36.37;100921.31;5071469;28;1447;-34
2023/08/11 09:07:06;;;;;;;;;;;;;;;28.02;36.07;100924.69;5074175;28;1035;-35
2023/08/11 09:09:32;;;;;;;;;;;;;;;28.16;35.54;100934.66;5075441;28;1091;-30
2023/08/11 09:11:59;;;;;;;;;;;;;;;27.94;36.13;100929.16;5073520;28;1070;-36
2023/08/11 09:14:24;;;;;;;;;;;;;;;28.01;35.98;100933.81;5054723;28;2396;-33
2023/08/11 09:16:51;;;;;;;;;;;;;;;27.98;36.25;100941.28;5064670;28;1102;-31
2023/08/11 09:19:17;;;;;;;;;;;;;;;27.97;37.12;100938.75;5074982;28;1975;-33
2023/08/11 09:21:43;;;;;;;;;;;;;;;28.08;37.03;100940.16;5061187;28;1155;-31
2023/08/11 09:24:12;;;;;;;;;;;;;;;28.09;37.29;100941.84;5068009;28;1055;-29
2023/08/11 09:26:37;;;;;;;;;;;;;;;28.26;36.09;100939.78;5064826;28;1075;-33
2023/08/11 09:29:03;;;;;;;;;;;;;;;28.41;35.40;100945.22;5075124;28;1027;-34
2023/08/11 09:31:29;;;;;;;;;;;;;;;28.21;35.40;100951.16;5057222;28;1127;-31
2023/08/11 09:33:54;;;;;;;;;;;;;;;28.19;35.31;100944.28;5074587;28;1062;-33
2023/08/11 09:36:20;;;;;;;;;;;;;;;28.17;35.49;100941.75;5071313;28;1067;-33
2023/08/11 09:38:46;;;;;;;;;;;;;;;28.22;35.77;100933.09;5056791;28;1906;-30
2023/08/11 09:41:12;;;;;;;;;;;;;;;28.30;35.46;100948.38;5071359;28;1033;-36
2023/08/11 09:43:37;;;;;;;;;;;;;;;28.26;35.60;100941.69;5075278;28;1035;-31
2023/08/11 09:46:03;;;;;;;;;;;;;;;28.43;34.85;100947.75;5064210;28;2261;-35
2023/08/11 09:48:28;;;;;;;;;;;;;;;28.48;34.86;100954.28;5073339;28;1079;-32
2023/08/11 09:50:54;;;;;;;;;;;;;;;28.50;35.02;100961.38;5061039;28;1344;-35
2023/08/11 09:53:20;;;;;;;;;;;;;;;28.85;33.97;100954.34;5042046;28;1293;-34
2023/08/11 09:55:46;;;;;;;;;;;;;;;28.89;34.00;100962.06;5032195;28;1404;-34
2023/08/11 09:58:12;;;;;;;;;;;;;;;28.98;35.05;100950.13;5051780;28;1902;-34
2023/08/11 10:00:37;;;;;;;;;;;;;;;29.01;35.41;100955.16;5042394;28;1094;-32
2023/08/11 10:03:07;;;;;;;;;;;;;;;28.94;34.62;100949.66;5045402;28;1443;-31
2023/08/11 10:05:34;;;;;;;;;;;;;;;28.96;34.90;100949.47;5022402;28;1340;-31
2023/08/11 10:07:59;;;;;;;;;;;;;;;29.11;34.85;100954.03;5038754;28;1118;-32
2023/08/11 10:10:25;;;;;;;;;;;;;;;29.14;34.24;100949.06;5017248;28;1381;-30
2023/08/11 10:12:55;;;;;;;;;;;;;;;29.14;35.11;100951.78;5040679;28;1451;-34
2023/08/11 10:15:21;;;;;;;;;;;;;;;28.96;35.41;100960.31;5044875;28;2595;-33
2023/08/11 10:17:47;;;;;;;;;;;;;;;29.21;33.98;100959.97;5058389;28;1230;-33
2023/08/11 10:20:13;;;;;;;;;;;;;;;29.09;35.10;100957.75;5076846;28;1918;-30
2023/08/11 10:22:38;;;;;;;;;;;;;;;29.19;35.73;100953.91;5027515;28;1420;-35
2023/08/11 10:25:04;;;;;;;;;;;;;;;29.28;34.96;100957.34;5033285;28;1329;-33
2023/08/11 10:27:30;;;;;;;;;;;;;;;29.24;34.92;100948.75;5021151;28;1368;-29
2023/08/11 10:29:55;;;;;;;;;;;;;;;29.33;34.40;100958.41;5020796;28;1405;-33
2023/08/11 10:32:25;;;;;;;;;;;;;;;29.08;34.63;100958.78;5045253;28;1474;-32
2023/08/11 10:34:51;;;;;;;;;;;;;;;29.04;34.25;100949.38;5038177;28;1356;-33
2023/08/11 10:37:16;;;;;;;;;;;;;;;29.04;34.65;100946.66;5040612;28;1407;-35
2023/08/11 10:39:42;;;;;;;;;;;;;;;29.03;33.83;100944.16;5060864;28;1910;-38
2023/08/11 10:42:13;;;;;;;;;;;;;;;29.11;35.10;100949.47;5041965;28;1422;-31
2023/08/11 10:44:41;;;;;;;;;;;;;;;28.76;35.68;100951.94;5028752;28;2177;-31
2023/08/11 10:47:07;;;;;;;;;;;;;;;28.67;35.65;100945.78;5076050;28;1033;-34
2023/08/11 10:49:33;;;;;;;;;;;;;;;28.65;36.07;100958.66;5068991;28;1170;-36
2023/08/11 10:51:59;;;;;;;;;;;;;;;28.73;34.40;100959.41;5063484;28;1015;-33
2023/08/11 10:54:25;;;;;;;;;;;;;;;28.70;33.99;100958.94;5059720;28;1337;-34
2023/08/11 10:56:50;;;;;;;;;;;;;;;28.56;34.71;100963.34;5077152;28;1149;-31
2023/08/11 10:59:17;;;;;;;;;;;;;;;28.55;34.59;100957.09;5047799;28;1918;-32
2023/08/11 11:01:45;;;;;;;;;;;;;;;28.64;34.95;100948.88;5063407;28;1131;-32
2023/08/11 11:04:11;;;;;;;;;;;;;;;28.67;34.11;100951.19;5078091;28;1100;-31
2023/08/11 11:06:37;;;;;;;;;;;;;;;28.57;34.68;100956.91;5077211;28;1063;-32
2023/08/11 11:09:03;;;;;;;;;;;;;;;28.70;34.73;100958.94;5067713;28;995;-35
2023/08/11 11:11:30;;;;;;;;;;;;;;;28.75;34.53;100942.97;5074096;28;1127;-32
2023/08/11 11:13:55;;;;;;;;;;;;;;;28.70;34.55;100948.09;5067059;28;2288;-35
2023/08/11 11:16:21;;;;;;;;;;;;;;;28.72;34.36;100937.94;5061391;28;1096;-32
2023/08/11 11:18:47;;;;;;;;;;;;;;;28.68;34.67;100942.88;5077126;28;1914;-33
2023/08/11 11:21:13;;;;;;;;;;;;;;;28.52;34.00;100953.91;5043055;28;1439;-37
2023/08/11 11:23:42;;;;;;;;;;;;;;;28.66;33.43;100941.41;5043611;28;1124;-36
2023/08/11 11:26:08;;;;;;;;;;;;;;;28.69;34.40;100943.72;5066683;28;1351;-33
2023/08/11 11:28:35;;;;;;;;;;;;;;;28.85;34.36;100942.66;5058542;28;1115;-35
2023/08/11 11:31:00;;;;;;;;;;;;;;;28.87;34.29;100935.19;5060166;28;1061;-31
2023/08/11 11:33:26;;;;;;;;;;;;;;;28.74;34.88;100933.19;5058686;28;1164;-35
2023/08/11 11:35:51;;;;;;;;;;;;;;;28.70;35.27;100942.69;5059238;28;1274;-33
2023/08/11 11:38:17;;;;;;;;;;;;;;;28.89;35.05;100938.56;5063419;28;1906;-30
2023/08/11 11:40:42;;;;;;;;;;;;;;;28.68;35.23;100933.91;5059280;28;1032;-31
2023/08/11 11:43:09;;;;;;;;;;;;;;;28.48;35.86;100937.19;5076883;28;1059;-32
2023/08/11 11:45:35;;;;;;;;;;;;;;;28.54;36.23;100928.34;5030926;28;2529;-30
2023/08/11 11:48:00;;;;;;;;;;;;;;;28.66;36.43;100941.41;5018710;28;1262;-30
2023/08/11 11:50:27;;;;;;;;;;;;;;;28.68;35.22;100945.59;5055756;28;1041;-31
2023/08/11 11:52:53;;;;;;;;;;;;;;;28.53;35.53;100942.91;5046135;28;1242;-30
2023/08/11 11:55:18;;;;;;;;;;;;;;;28.61;35.49;100944.69;5070104;28;1113;-31
2023/08/11 11:57:44;;;;;;;;;;;;;;;28.65;35.08;100935.13;5071679;28;1527;-30
2023/08/11 12:00:16;;;;;;;;;;;;;;;28.52;34.93;100948.50;5069145;28;1961;-33
2023/08/11 12:02:42;;;;;;;;;;;;;;;28.64;34.98;100943.44;5062526;28;1203;-35
2023/08/11 12:05:08;;;;;;;;;;;;;;;28.76;35.17;100938.41;5076221;28;1313;-33
2023/08/11 12:07:34;;;;;;;;;;;;;;;28.53;35.75;100936.66;5072525;28;1304;-32
2023/08/11 12:10:00;;;;;;;;;;;;;;;28.69;35.90;100932.91;5072677;28;1360;-33
2023/08/11 12:12:25;;;;;;;;;;;;;;;28.71;35.22;100920.84;5042535;28;1305;-30
2023/08/11 12:14:51;;;;;;;;;;;;;;;28.65;35.06;100937.84;5052036;28;1848;-32
2023/08/11 12:17:17;;;;;;;;;;;;;;;28.84;35.18;100936.41;5047950;28;1412;-33
2023/08/11 12:19:44;;;;;;;;;;;;;;;28.96;34.95;100917.78;5051700;28;1972;-33
2023/08/11 12:22:09;;;;;;;;;;;;;;;28.75;34.99;100917.75;5037094;28;1412;-30
2023/08/11 12:24:35;;;;;;;;;;;;;;;28.66;36.03;100934.09;5056860;28;1400;-32
2023/08/11 12:27:00;;;;;;;;;;;;;;;28.69;35.52;100930.19;5057094;28;1459;-33
2023/08/11 12:29:26;;;;;;;;;;;;;;;28.78;35.13;100931.75;5075706;28;1349;-33
2023/08/11 12:31:51;;;;;;;;;;;;;;;28.70;35.58;100929.16;5065350;28;1297;-32
2023/08/11 12:34:17;;;;;;;;;;;;;;;28.80;35.76;100924.28;5061248;28;1289;-33
2023/08/11 12:36:42;;;;;;;;;;;;;;;28.86;35.81;100938.94;5068406;28;1243;-29
2023/08/11 12:39:08;;;;;;;;;;;;;;;28.73;35.79;100931.47;5062870;28;1902;-33
2023/08/11 12:41:34;;;;;;;;;;;;;;;28.67;35.58;100941.22;5069891;28;1266;-33